Time;durP1;ratioP1;P1;durP2;ratioP2;P2;SDS_P1;SDS_P2;PMS_P1;PMS_P2;Temp;Humidity;BMP_temperature;BMP_pressure;BME280_temperature;BME280_humidity;BME280_pressure;Samples;Min_cycle;Max_cycle;Signal;HPM_P1;HPM_P2
2023/04/01 00:02:07;;;;;;;3.00;1.55;;;11.00;99.90;;;;;;5042529;28;20090;-43
2023/04/01 00:04:33;;;;;;;2.20;1.02;;;11.00;99.90;;;;;;5042154;28;20033;-43
2023/04/01 00:07:00;;;;;;;2.17;1.20;;;11.00;99.90;;;;;;5041777;28;20480;-42
2023/04/01 00:09:25;;;;;;;3.47;1.50;;;11.10;99.90;;;;;;5043004;28;20032;-42
2023/04/01 00:11:54;;;;;;;2.17;1.20;;;11.00;99.90;;;;;;5042542;28;20021;-43
2023/04/01 00:14:22;;;;;;;3.33;1.42;;;11.00;99.90;;;;;;5042270;28;20037;-42
2023/04/01 00:16:48;;;;;;;2.40;1.30;;;11.00;99.90;;;;;;5042523;28;20021;-42
2023/04/01 00:19:14;;;;;;;2.60;1.52;;;11.00;99.90;;;;;;5042356;28;20017;-44
2023/04/01 00:21:40;;;;;;;1.92;1.30;;;11.00;99.90;;;;;;5043048;28;20384;-43
2023/04/01 00:24:06;;;;;;;2.60;1.48;;;11.00;99.90;;;;;;5042331;28;20078;-44
2023/04/01 00:26:32;;;;;;;3.00;1.45;;;11.00;99.90;;;;;;5042911;28;20028;-43
2023/04/01 00:28:58;;;;;;;2.88;1.98;;;11.00;99.90;;;;;;5041580;28;20052;-43
2023/04/01 00:31:24;;;;;;;1.75;1.35;;;11.00;99.90;;;;;;5042110;28;20172;-43
2023/04/01 00:33:51;;;;;;;1.80;1.40;;;11.00;99.90;;;;;;5042360;28;20021;-43
2023/04/01 00:36:21;;;;;;;3.53;1.90;;;10.90;99.90;;;;;;5041536;28;20025;-44
2023/04/01 00:38:47;;;;;;;2.03;1.58;;;11.00;99.90;;;;;;5042497;28;20035;-43
2023/04/01 00:41:15;;;;;;;2.25;1.80;;;11.00;99.90;;;;;;5041771;28;20631;-43
2023/04/01 00:43:49;;;;;;;2.45;1.70;;;11.00;99.90;;;;;;5041679;28;20071;-44
2023/04/01 00:46:15;;;;;;;1.92;1.60;;;11.00;99.90;;;;;;5041571;28;20052;-44
2023/04/01 00:49:08;;;;;;;1.60;1.40;;;11.00;99.90;;;;;;5041721;28;20041;-43
2023/04/01 00:51:36;;;;;;;3.22;1.90;;;11.00;99.90;;;;;;5041013;28;20562;-43
2023/04/01 00:54:03;;;;;;;2.63;2.20;;;11.00;99.90;;;;;;5041673;28;20048;-43
2023/04/01 00:56:44;;;;;;;2.35;2.13;;;11.00;99.90;;;;;;5041745;28;20029;-42
2023/04/01 00:59:15;;;;;;;3.75;2.97;;;11.00;99.90;;;;;;5041923;28;20024;-43
2023/04/01 01:01:41;;;;;;;3.75;3.20;;;11.00;99.90;;;;;;5042019;28;20376;-42
2023/04/01 01:04:07;;;;;;;4.07;3.63;;;11.00;99.90;;;;;;5040452;28;20555;-42
2023/04/01 01:06:55;;;;;;;4.63;4.07;;;11.00;99.90;;;;;;5042213;28;20439;-42
2023/04/01 01:09:38;;;;;;;4.88;4.00;;;11.00;99.90;;;;;;5042091;28;20063;-44
2023/04/01 01:12:17;;;;;;;5.72;4.70;;;11.00;99.90;;;;;;5041685;28;20103;-43
2023/04/01 01:15:05;;;;;;;6.78;5.20;;;11.00;99.90;;;;;;5041643;28;20435;-43
2023/04/01 01:18:03;;;;;;;5.00;4.45;;;11.00;99.90;;;;;;5041792;28;20044;-42
2023/04/01 01:20:46;;;;;;;6.15;5.22;;;11.00;99.90;;;;;;5041800;28;20056;-43
2023/04/01 01:23:42;;;;;;;6.80;5.10;;;11.00;99.90;;;;;;5021755;28;20029;-43
2023/04/01 01:26:37;;;;;;;6.40;4.80;;;11.00;99.90;;;;;;5040234;28;20036;-43
2023/04/01 01:29:09;;;;;;;5.55;4.97;;;11.00;99.90;;;;;;5040337;28;20037;-44
2023/04/01 01:31:50;;;;;;;7.30;4.82;;;11.00;99.90;;;;;;5040864;28;20083;-43
2023/04/01 01:34:35;;;;;;;7.10;5.53;;;11.00;99.90;;;;;;5040888;28;20025;-43
2023/04/01 01:37:05;;;;;;;5.40;4.95;;;11.10;99.90;;;;;;5039987;28;20048;-43
2023/04/01 01:39:33;;;;;;;5.15;4.60;;;11.10;99.90;;;;;;5041031;28;20033;-43
2023/04/01 01:42:04;;;;;;;6.20;5.55;;;11.10;99.90;;;;;;5041454;28;20025;-44
2023/04/01 01:44:30;;;;;;;5.80;4.88;;;11.10;99.90;;;;;;5041561;28;20021;-43
2023/04/01 01:46:57;;;;;;;5.82;4.70;;;11.10;99.90;;;;;;5040300;28;20091;-43
2023/04/01 01:49:23;;;;;;;5.90;5.30;;;11.10;99.90;;;;;;5040784;28;20123;-43
2023/04/01 01:51:49;;;;;;;5.32;4.82;;;11.10;99.90;;;;;;5040553;28;20048;-43
2023/04/01 01:54:17;;;;;;;4.82;4.40;;;11.10;99.90;;;;;;5041025;28;20182;-43
2023/04/01 01:56:47;;;;;;;5.82;4.35;;;11.10;99.90;;;;;;5041161;28;20029;-43
2023/04/01 01:59:15;;;;;;;5.95;4.20;;;11.10;99.90;;;;;;5039846;28;20036;-42
2023/04/01 02:01:45;;;;;;;5.65;4.20;;;11.10;99.90;;;;;;5040986;28;20137;-43
2023/04/01 02:04:17;;;;;;;6.93;3.85;;;11.00;99.90;;;;;;5041048;28;20108;-42
2023/04/01 02:06:55;;;;;;;9.35;4.32;;;11.00;99.90;;;;;;5040353;28;20021;-44
2023/04/01 02:09:21;;;;;;;9.30;4.75;;;11.00;99.90;;;;;;5040524;28;20047;-44
2023/04/01 02:12:04;;;;;;;10.10;5.20;;;11.00;99.90;;;;;;5040859;28;20067;-43
2023/04/01 02:14:39;;;;;;;9.95;5.25;;;10.90;99.90;;;;;;5040298;28;20044;-43
2023/04/01 02:17:14;;;;;;;6.25;4.00;;;10.90;99.90;;;;;;5040026;28;20485;-43
2023/04/01 02:19:47;;;;;;;10.43;4.40;;;10.90;99.90;;;;;;5040836;28;20052;-43
2023/04/01 02:22:17;;;;;;;6.10;3.30;;;10.90;99.90;;;;;;5039889;28;20033;-43
2023/04/01 02:24:45;;;;;;;7.32;3.15;;;10.90;99.90;;;;;;5041056;28;20499;-44
2023/04/01 02:27:11;;;;;;;4.45;2.58;;;10.90;99.90;;;;;;5040659;28;20039;-43
2023/04/01 02:29:38;;;;;;;7.40;3.40;;;10.90;99.90;;;;;;5044590;28;20041;-42
2023/04/01 02:32:08;;;;;;;5.43;3.22;;;10.90;99.90;;;;;;5043731;28;20021;-43
2023/04/01 02:34:34;;;;;;;5.40;2.97;;;10.90;99.90;;;;;;5044701;28;20040;-43
2023/04/01 02:37:02;;;;;;;7.32;2.95;;;10.90;99.90;;;;;;5044478;28;20361;-43
2023/04/01 02:39:28;;;;;;;5.40;2.80;;;10.90;99.90;;;;;;5044863;28;20039;-43
2023/04/01 02:41:56;;;;;;;5.75;3.22;;;10.80;99.90;;;;;;5044275;28;20029;-43
2023/04/01 02:44:22;;;;;;;7.15;3.35;;;10.80;99.90;;;;;;5044497;28;20105;-43
2023/04/01 02:46:47;;;;;;;5.85;3.10;;;10.80;99.90;;;;;;5044639;28;20045;-43
2023/04/01 02:49:13;;;;;;;7.38;3.20;;;10.80;99.90;;;;;;5044294;28;20460;-43
2023/04/01 02:51:38;;;;;;;7.50;2.70;;;10.80;99.90;;;;;;5045178;28;20369;-43
2023/04/01 02:54:04;;;;;;;6.63;2.80;;;10.80;99.90;;;;;;5043412;28;20376;-44
2023/04/01 02:56:30;;;;;;;7.03;3.22;;;10.80;99.90;;;;;;5043878;28;20460;-43
2023/04/01 02:58:55;;;;;;;5.40;3.10;;;10.80;99.90;;;;;;5044258;28;20029;-43
2023/04/01 03:01:21;;;;;;;4.68;2.38;;;10.80;99.90;;;;;;5043772;28;20692;-43
2023/04/01 03:03:47;;;;;;;3.28;2.38;;;10.80;99.90;;;;;;5043333;28;20025;-43
2023/04/01 03:06:15;;;;;;;3.17;2.72;;;10.80;99.90;;;;;;5043626;28;20028;-43
2023/04/01 03:08:42;;;;;;;4.60;3.00;;;10.80;99.90;;;;;;5043823;28;20040;-43
2023/04/01 03:11:08;;;;;;;4.38;3.13;;;10.70;99.90;;;;;;5042955;28;20021;-43
2023/04/01 03:13:34;;;;;;;3.13;2.83;;;10.80;99.90;;;;;;5043713;28;20017;-43
2023/04/01 03:15:59;;;;;;;3.30;2.83;;;10.70;99.90;;;;;;5043587;28;20468;-43
2023/04/01 03:18:25;;;;;;;3.88;3.00;;;10.70;99.90;;;;;;5043260;28;20476;-43
2023/04/01 03:20:50;;;;;;;4.55;3.25;;;10.70;99.90;;;;;;5043953;28;20029;-43
2023/04/01 03:23:19;;;;;;;3.85;3.30;;;10.70;99.90;;;;;;5042764;28;20682;-43
2023/04/01 03:25:45;;;;;;;4.28;3.05;;;10.70;99.90;;;;;;5044242;28;20371;-43
2023/04/01 03:28:10;;;;;;;3.45;3.03;;;10.70;99.90;;;;;;5043542;28;20036;-43
2023/04/01 03:30:36;;;;;;;4.75;3.42;;;10.70;99.90;;;;;;5043202;28;20033;-43
2023/04/01 03:33:02;;;;;;;4.38;3.42;;;10.70;99.90;;;;;;5043544;28;20110;-43
2023/04/01 03:35:28;;;;;;;4.13;3.25;;;10.70;99.90;;;;;;5043504;28;20351;-43
2023/04/01 03:37:54;;;;;;;4.32;3.55;;;10.70;99.90;;;;;;5042955;28;20021;-44
2023/04/01 03:40:20;;;;;;;4.15;3.45;;;10.70;99.90;;;;;;5043197;28;20555;-43
2023/04/01 03:42:46;;;;;;;3.58;3.28;;;10.70;99.90;;;;;;5044018;28;20025;-43
2023/04/01 03:45:12;;;;;;;4.18;3.50;;;10.60;99.90;;;;;;5042150;28;20040;-43
2023/04/01 03:47:38;;;;;;;4.60;3.53;;;10.70;99.90;;;;;;5043651;28;20064;-42
2023/04/01 03:50:06;;;;;;;3.28;2.88;;;10.60;99.90;;;;;;5042835;28;20029;-42
2023/04/01 03:52:31;;;;;;;4.75;3.20;;;10.60;99.90;;;;;;5042651;28;20762;-42
2023/04/01 03:54:57;;;;;;;3.92;3.13;;;10.60;99.90;;;;;;5042942;28;20029;-42
2023/04/01 03:57:23;;;;;;;5.55;3.80;;;10.60;99.90;;;;;;5042748;28;20066;-42
2023/04/01 03:59:51;;;;;;;4.95;4.15;;;10.60;99.90;;;;;;5042938;28;20025;-43
2023/04/01 04:02:17;;;;;;;3.90;3.50;;;10.60;99.90;;;;;;5042825;28;20035;-42
2023/04/01 04:04:43;;;;;;;3.90;3.50;;;10.60;99.90;;;;;;5043281;28;20033;-42
2023/04/01 04:07:08;;;;;;;3.45;3.15;;;10.60;99.90;;;;;;5041877;28;20147;-43
2023/04/01 04:09:34;;;;;;;4.25;3.47;;;10.60;99.90;;;;;;5042752;28;20072;-42
2023/04/01 04:12:00;;;;;;;5.28;3.28;;;10.60;99.90;;;;;;5042603;28;20049;-43
2023/04/01 04:14:26;;;;;;;3.22;2.92;;;10.60;99.90;;;;;;5042265;28;20033;-43
2023/04/01 04:16:51;;;;;;;4.10;3.47;;;10.60;99.90;;;;;;5042125;28;20024;-43
2023/04/01 04:19:17;;;;;;;3.60;3.30;;;10.60;99.90;;;;;;5042206;28;20029;-43
2023/04/01 04:21:43;;;;;;;4.30;3.90;;;10.60;99.90;;;;;;5042093;28;20036;-43
2023/04/01 04:24:09;;;;;;;5.47;4.07;;;10.60;99.90;;;;;;5041872;28;20445;-43
2023/04/01 04:26:34;;;;;;;3.22;2.92;;;10.60;99.90;;;;;;5042174;28;20770;-42
2023/04/01 04:29:02;;;;;;;4.57;3.50;;;10.60;99.90;;;;;;5042504;28;20029;-42
2023/04/01 04:31:27;;;;;;;4.28;3.47;;;10.60;99.90;;;;;;5042366;28;20048;-42
2023/04/01 04:33:54;;;;;;;3.90;3.10;;;10.60;99.90;;;;;;5041935;28;20556;-42
2023/04/01 04:36:26;;;;;;;4.35;3.58;;;10.60;99.90;;;;;;5041547;28;20128;-42
2023/04/01 04:38:52;;;;;;;3.08;2.83;;;10.60;99.90;;;;;;5042582;28;20525;-42
2023/04/01 04:41:18;;;;;;;3.85;3.15;;;10.60;99.90;;;;;;5040866;28;20029;-46
2023/04/01 04:43:50;;;;;;;4.15;3.00;;;10.60;99.90;;;;;;5042570;28;20041;-43
2023/04/01 04:46:16;;;;;;;4.43;3.50;;;10.60;99.90;;;;;;5041575;28;20060;-43
2023/04/01 04:48:44;;;;;;;4.22;3.67;;;10.50;99.90;;;;;;5041924;28;20074;-43
2023/04/01 04:51:14;;;;;;;5.63;3.85;;;10.60;99.90;;;;;;5041076;28;20029;-43
2023/04/01 04:53:40;;;;;;;4.50;4.10;;;10.50;99.90;;;;;;5043166;28;20097;-42
2023/04/01 04:56:06;;;;;;;5.03;4.22;;;10.50;99.90;;;;;;5040935;28;20021;-43
2023/04/01 04:58:34;;;;;;;4.03;3.72;;;10.50;99.90;;;;;;5041932;28;20031;-44
2023/04/01 05:01:06;;;;;;;4.47;4.07;;;10.50;99.90;;;;;;5041984;28;20158;-43
2023/04/01 05:03:31;;;;;;;4.93;4.53;;;10.50;99.90;;;;;;5041132;28;20036;-42
2023/04/01 05:05:57;;;;;;;4.82;4.20;;;10.50;99.90;;;;;;5042475;28;20036;-43
2023/04/01 05:08:22;;;;;;;4.43;4.03;;;10.50;99.90;;;;;;5041882;28;20033;-43
2023/04/01 05:10:48;;;;;;;4.78;4.38;;;10.50;99.90;;;;;;5041603;28;20558;-43
2023/04/01 05:13:14;;;;;;;4.28;3.80;;;10.50;99.90;;;;;;5041403;28;20547;-43
2023/04/01 05:15:39;;;;;;;4.70;4.30;;;10.50;99.90;;;;;;5042114;28;20048;-42
2023/04/01 05:18:05;;;;;;;3.55;3.25;;;10.50;99.90;;;;;;5041178;28;20032;-43
2023/04/01 05:20:33;;;;;;;3.60;3.30;;;10.50;99.90;;;;;;5041590;28;20037;-43
2023/04/01 05:23:00;;;;;;;3.85;3.55;;;10.50;99.90;;;;;;5040561;28;20145;-43
2023/04/01 05:25:25;;;;;;;5.63;5.03;;;10.50;99.90;;;;;;5041645;28;20478;-43
2023/04/01 05:27:51;;;;;;;4.57;4.18;;;10.50;99.90;;;;;;5041741;28;20037;-45
2023/04/01 05:30:17;;;;;;;4.93;4.47;;;10.50;99.90;;;;;;5040467;28;20888;-43
2023/04/01 05:32:44;;;;;;;4.85;4.35;;;10.50;99.90;;;;;;5041913;28;20032;-42
2023/04/01 05:35:12;;;;;;;4.60;4.20;;;10.50;99.90;;;;;;5041034;28;20552;-43
2023/04/01 05:37:38;;;;;;;4.20;3.80;;;10.60;99.90;;;;;;5041058;28;20028;-43
2023/04/01 05:40:04;;;;;;;3.85;3.50;;;10.60;99.90;;;;;;5041161;28;20021;-43
2023/04/01 05:42:30;;;;;;;3.50;3.20;;;10.60;99.90;;;;;;5042260;28;20035;-43
2023/04/01 05:44:56;;;;;;;3.25;2.90;;;10.60;99.90;;;;;;5041597;28;20021;-43
2023/04/01 05:47:22;;;;;;;3.80;3.50;;;10.60;99.90;;;;;;5042084;28;20500;-43
2023/04/01 05:49:48;;;;;;;3.28;2.83;;;10.60;99.90;;;;;;5042086;28;20068;-43
2023/04/01 05:52:14;;;;;;;3.80;3.38;;;10.60;99.90;;;;;;5040336;28;20121;-43
2023/04/01 05:54:39;;;;;;;4.53;4.00;;;10.70;99.90;;;;;;5042220;28;20053;-43
2023/04/01 05:57:05;;;;;;;4.68;4.15;;;10.70;99.90;;;;;;5040945;28;20727;-43
2023/04/01 05:59:34;;;;;;;6.30;5.70;;;10.70;99.90;;;;;;5040363;28;20534;-43
2023/04/01 06:02:00;;;;;;;6.70;5.35;;;10.70;99.90;;;;;;5040270;28;20029;-43
2023/04/01 06:04:32;;;;;;;8.63;6.60;;;10.60;99.90;;;;;;5040633;28;20442;-43
2023/04/01 06:07:04;;;;;;;6.45;5.35;;;10.60;99.90;;;;;;5040565;28;20057;-43
2023/04/01 06:09:30;;;;;;;6.13;5.30;;;10.70;99.90;;;;;;5041018;28;20033;-43
2023/04/01 06:12:44;;;;;;;7.40;5.60;;;10.70;99.90;;;;;;5040427;28;20025;-42
2023/04/01 06:15:36;;;;;;;12.15;8.40;;;10.80;99.90;;;;;;5038172;28;20107;-42
2023/04/01 06:18:36;;;;;;;11.00;8.13;;;10.70;99.90;;;;;;5020937;28;20037;-42
2023/04/01 06:21:34;;;;;;;9.52;7.35;;;10.70;99.90;;;;;;5039568;28;20537;-43
2023/04/01 06:24:52;;;;;;;9.63;6.97;;;10.70;99.90;;;;;;5027413;28;20041;-43
2023/04/01 06:27:35;;;;;;;9.45;6.72;;;10.70;99.90;;;;;;5023696;28;20045;-42
2023/04/01 06:30:32;;;;;;;8.13;5.93;;;10.70;99.90;;;;;;5040733;28;20175;-42
2023/04/01 06:33:11;;;;;;;7.03;5.88;;;10.80;99.90;;;;;;5021176;28;20367;-43
2023/04/01 06:35:51;;;;;;;7.60;5.63;;;10.80;99.90;;;;;;5032861;28;20025;-44
2023/04/01 06:38:50;;;;;;;7.13;5.70;;;10.80;99.90;;;;;;5040019;28;20190;-44
2023/04/01 06:41:37;;;;;;;6.13;4.57;;;10.80;99.90;;;;;;5039228;28;20119;-42
2023/04/01 06:44:15;;;;;;;5.43;4.38;;;10.90;99.90;;;;;;5020416;28;20533;-43
2023/04/01 06:46:51;;;;;;;5.10;4.00;;;10.90;99.90;;;;;;5038979;28;20053;-44
2023/04/01 06:49:50;;;;;;;5.22;4.00;;;11.00;99.90;;;;;;5038946;28;20041;-43
2023/04/01 06:53:09;;;;;;;4.72;3.90;;;11.00;99.90;;;;;;5036076;28;20441;-43
2023/04/01 06:55:59;;;;;;;4.70;4.00;;;11.10;99.90;;;;;;5019337;28;20037;-42
2023/04/01 06:58:33;;;;;;;4.40;3.53;;;11.10;99.90;;;;;;5040322;28;20757;-43
2023/04/01 07:01:03;;;;;;;3.60;3.00;;;11.10;99.90;;;;;;5040808;28;20028;-43
2023/04/01 07:03:34;;;;;;;4.05;3.00;;;11.10;99.90;;;;;;5040606;28;20132;-44
2023/04/01 07:06:05;;;;;;;2.90;2.42;;;11.10;99.90;;;;;;5040905;28;20044;-44
2023/04/01 07:08:36;;;;;;;2.30;2.10;;;11.10;99.90;;;;;;5040349;28;20080;-43
2023/04/01 07:11:05;;;;;;;3.03;2.58;;;11.20;99.90;;;;;;5040252;28;20114;-43
2023/04/01 07:13:54;;;;;;;3.72;2.10;;;11.20;99.90;;;;;;5042685;28;20040;-43
2023/04/01 07:16:43;;;;;;;2.58;2.38;;;11.30;99.90;;;;;;5043599;28;20389;-44
2023/04/01 07:19:17;;;;;;;1.98;1.77;;;11.20;99.90;;;;;;5043163;28;20021;-43
2023/04/01 07:21:52;;;;;;;2.00;1.80;;;11.20;99.90;;;;;;5044228;28;20025;-43
2023/04/01 07:24:31;;;;;;;1.88;1.67;;;11.20;99.90;;;;;;5043280;28;20055;-43
2023/04/01 07:26:57;;;;;;;1.60;1.50;;;11.20;99.90;;;;;;5044631;28;20032;-43
2023/04/01 07:29:24;;;;;;;1.83;1.50;;;11.20;99.90;;;;;;5043266;28;20328;-43
2023/04/01 07:32:07;;;;;;;1.27;1.17;;;11.20;99.90;;;;;;5044505;28;20468;-43
2023/04/01 07:35:03;;;;;;;1.40;1.20;;;11.20;99.90;;;;;;5044552;28;20394;-42
2023/04/01 07:37:35;;;;;;;1.05;0.98;;;11.30;99.90;;;;;;5043173;28;20083;-42
2023/04/01 07:40:24;;;;;;;1.27;0.98;;;11.30;99.90;;;;;;5043659;28;20040;-42
2023/04/01 07:43:28;;;;;;;1.10;1.00;;;11.30;99.90;;;;;;5043807;28;20048;-43
2023/04/01 07:46:08;;;;;;;1.38;1.27;;;11.30;99.90;;;;;;5023490;28;20040;-44
2023/04/01 07:49:03;;;;;;;1.20;1.10;;;11.30;99.90;;;;;;5040169;28;20037;-42
2023/04/01 07:51:36;;;;;;;1.23;0.95;;;11.30;99.90;;;;;;5043438;28;20024;-42
2023/04/01 07:54:01;;;;;;;1.17;1.08;;;11.40;99.90;;;;;;5042971;28;20033;-43
2023/04/01 07:56:55;;;;;;;1.35;1.20;;;11.40;99.90;;;;;;5043405;28;20032;-44
2023/04/01 07:59:39;;;;;;;1.40;1.30;;;11.40;99.90;;;;;;5041495;28;20017;-43
2023/04/01 08:02:20;;;;;;;1.33;1.23;;;11.50;99.90;;;;;;5042496;28;20024;-43
2023/04/01 08:05:17;;;;;;;1.40;1.30;;;11.50;99.90;;;;;;5039442;28;20048;-43
2023/04/01 08:08:10;;;;;;;1.25;1.15;;;11.60;99.90;;;;;;5043110;28;20078;-42
2023/04/01 08:10:54;;;;;;;0.95;0.90;;;11.70;99.90;;;;;;5034456;28;20064;-43
2023/04/01 08:13:40;;;;;;;1.02;0.90;;;11.70;99.90;;;;;;5041422;28;20075;-43
2023/04/01 08:16:31;;;;;;;1.15;1.05;;;11.80;99.90;;;;;;5042149;28;20021;-42
2023/04/01 08:19:16;;;;;;;0.80;0.80;;;11.80;99.90;;;;;;5041548;28;20059;-42
2023/04/01 08:21:50;;;;;;;1.00;0.75;;;11.80;99.90;;;;;;5043520;28;20029;-43
2023/04/01 08:24:39;;;;;;;0.80;0.80;;;11.80;99.90;;;;;;5041412;28;20474;-43
2023/04/01 08:27:15;;;;;;;0.70;0.70;;;11.70;99.90;;;;;;5041894;28;20025;-43
2023/04/01 08:29:48;;;;;;;0.70;0.70;;;11.70;99.90;;;;;;5042557;28;20079;-43
2023/04/01 08:32:20;;;;;;;0.50;0.40;;;11.70;99.90;;;;;;5041364;28;20106;-43
2023/04/01 08:34:50;;;;;;;0.50;0.50;;;11.70;99.90;;;;;;5041855;28;20075;-43
2023/04/01 08:37:32;;;;;;;0.63;0.50;;;11.80;99.90;;;;;;5041771;28;20127;-43
2023/04/01 08:40:12;;;;;;;1.13;0.60;;;11.80;99.90;;;;;;5041593;28;20082;-43
2023/04/01 08:42:48;;;;;;;1.55;0.50;;;11.70;99.90;;;;;;5042737;28;20601;-43
2023/04/01 08:45:46;;;;;;;0.50;0.50;;;11.80;99.90;;;;;;5041714;28;20071;-43
2023/04/01 08:48:45;;;;;;;0.70;0.70;;;11.80;99.90;;;;;;5022133;28;20083;-43
2023/04/01 08:51:17;;;;;;;1.00;0.85;;;11.80;99.90;;;;;;5041375;28;20021;-44
2023/04/01 08:53:55;;;;;;;1.10;1.00;;;11.80;99.90;;;;;;5041734;28;20033;-43
2023/04/01 08:56:46;;;;;;;1.05;0.95;;;11.80;99.90;;;;;;5040649;28;20021;-43
2023/04/01 08:59:37;;;;;;;1.15;1.00;;;11.80;99.90;;;;;;5041395;28;20040;-43
2023/04/01 09:02:25;;;;;;;0.80;0.80;;;11.80;99.90;;;;;;5029925;28;20035;-43
2023/04/01 09:05:03;;;;;;;0.80;0.80;;;11.80;99.90;;;;;;5042309;28;20021;-44
2023/04/01 09:07:41;;;;;;;0.70;0.70;;;11.80;99.90;;;;;;5041897;28;20029;-44
2023/04/01 09:10:12;;;;;;;1.10;0.90;;;11.90;99.90;;;;;;5041065;28;20052;-42
2023/04/01 09:12:58;;;;;;;1.13;1.02;;;11.90;99.90;;;;;;5041868;28;20385;-43
2023/04/01 09:15:36;;;;;;;1.50;1.10;;;12.00;99.90;;;;;;5039977;28;20536;-42
2023/04/01 09:18:30;;;;;;;1.45;1.35;;;12.00;99.90;;;;;;5041709;28;20025;-42
2023/04/01 09:21:04;;;;;;;2.13;1.10;;;12.10;99.90;;;;;;5041598;28;20124;-42
2023/04/01 09:23:48;;;;;;;1.40;1.30;;;12.10;99.90;;;;;;5040999;28;20112;-42
2023/04/01 09:26:17;;;;;;;1.75;1.30;;;12.00;99.90;;;;;;5039792;28;20434;-43
2023/04/01 09:29:02;;;;;;;1.17;1.08;;;11.90;99.90;;;;;;5041440;28;20488;-43
2023/04/01 09:31:39;;;;;;;1.27;1.10;;;11.90;99.90;;;;;;5040669;28;20029;-43
2023/04/01 09:34:50;;;;;;;1.50;1.40;;;12.00;99.90;;;;;;5040749;28;20090;-42
2023/04/01 09:37:21;;;;;;;2.00;1.55;;;11.90;99.90;;;;;;5040109;28;20363;-42
2023/04/01 09:40:01;;;;;;;1.40;1.30;;;11.90;99.90;;;;;;5041408;28;20734;-43
2023/04/01 09:42:41;;;;;;;1.88;1.73;;;11.90;99.90;;;;;;5041361;28;20047;-44
2023/04/01 09:45:22;;;;;;;1.30;1.20;;;11.80;99.90;;;;;;5040938;28;20025;-43
2023/04/01 09:48:13;;;;;;;1.52;1.30;;;11.80;99.90;;;;;;5041234;28;20060;-42
2023/04/01 09:51:03;;;;;;;1.40;1.30;;;11.70;99.90;;;;;;5031788;28;20044;-43
2023/04/01 09:54:04;;;;;;;1.50;1.40;;;11.70;99.90;;;;;;5039258;28;20051;-43
2023/04/01 09:57:07;;;;;;;1.70;1.60;;;11.70;99.90;;;;;;5041221;28;20025;-43
2023/04/01 09:59:44;;;;;;;1.88;1.67;;;11.70;99.90;;;;;;5035352;28;20445;-43
2023/04/01 10:02:42;;;;;;;2.35;2.00;;;11.70;99.90;;;;;;5040345;28;20040;-43
2023/04/01 10:05:32;;;;;;;1.60;1.50;;;11.70;99.90;;;;;;5039958;28;20025;-43
2023/04/01 10:08:09;;;;;;;4.75;2.13;;;11.60;99.90;;;;;;5040428;28;20040;-42
2023/04/01 10:10:56;;;;;;;2.30;2.10;;;11.60;99.90;;;;;;5041277;28;20174;-42
2023/04/01 10:13:45;;;;;;;2.47;2.03;;;11.70;99.90;;;;;;5039388;28;20571;-43
2023/04/01 10:16:22;;;;;;;2.45;2.10;;;11.70;99.90;;;;;;5020511;28;20044;-42
2023/04/01 10:19:05;;;;;;;2.60;1.95;;;11.70;99.90;;;;;;5038334;28;20033;-42
2023/04/01 10:21:31;;;;;;;2.88;2.50;;;11.70;99.90;;;;;;5040968;28;20053;-43
2023/04/01 10:24:15;;;;;;;2.67;2.47;;;11.80;99.90;;;;;;5041103;28;20132;-43
2023/04/01 10:26:59;;;;;;;2.90;2.60;;;11.90;99.90;;;;;;5040052;28;20033;-43
2023/04/01 10:29:35;;;;;;;3.25;2.95;;;11.90;99.90;;;;;;5038881;28;20049;-43
2023/04/01 10:32:38;;;;;;;3.60;3.30;;;12.00;99.90;;;;;;5041216;28;20036;-42
2023/04/01 10:35:28;;;;;;;3.38;3.08;;;12.00;99.90;;;;;;5038335;28;20033;-43
2023/04/01 10:38:15;;;;;;;3.55;3.10;;;12.00;99.90;;;;;;5040517;28;20143;-44
2023/04/01 10:41:13;;;;;;;4.55;4.13;;;12.10;99.90;;;;;;5040056;28;20114;-43
2023/04/01 10:44:13;;;;;;;4.25;3.85;;;12.10;99.90;;;;;;5028959;28;20393;-43
2023/04/01 10:47:02;;;;;;;5.28;4.78;;;12.20;99.90;;;;;;5039969;28;20059;-43
2023/04/01 10:49:43;;;;;;;6.10;5.50;;;12.20;99.90;;;;;;5043137;28;20578;-43
2023/04/01 10:52:21;;;;;;;5.03;4.53;;;12.30;99.90;;;;;;5024346;28;20036;-43
2023/04/01 10:54:58;;;;;;;6.15;4.63;;;12.30;99.90;;;;;;5040939;28;20031;-43
2023/04/01 10:57:41;;;;;;;5.68;5.15;;;12.40;99.90;;;;;;5044909;28;20358;-43
2023/04/01 11:00:19;;;;;;;4.70;4.30;;;12.50;99.90;;;;;;5043765;28;20099;-43
2023/04/01 11:03:14;;;;;;;4.78;4.32;;;12.50;99.90;;;;;;5044440;28;20083;-43
2023/04/01 11:06:09;;;;;;;5.90;5.18;;;12.60;99.90;;;;;;5027441;28;20087;-44
2023/04/01 11:08:53;;;;;;;5.00;4.50;;;12.60;99.90;;;;;;5043952;28;20147;-42
2023/04/01 11:11:39;;;;;;;6.43;5.82;;;12.50;99.90;;;;;;5043349;28;20036;-43
2023/04/01 11:14:13;;;;;;;5.60;5.10;;;12.50;99.90;;;;;;5043575;28;20033;-43
2023/04/01 11:17:19;;;;;;;5.00;4.43;;;12.60;99.90;;;;;;5033738;28;20040;-43
2023/04/01 11:20:09;;;;;;;5.07;4.57;;;12.70;99.90;;;;;;5043686;28;20636;-43
2023/04/01 11:23:00;;;;;;;4.88;4.47;;;12.80;99.90;;;;;;5043102;28;20028;-43
2023/04/01 11:25:52;;;;;;;5.10;4.60;;;12.70;99.90;;;;;;5043385;28;20116;-43
2023/04/01 11:28:35;;;;;;;5.40;4.90;;;12.70;99.90;;;;;;5023467;28;20115;-43
2023/04/01 11:31:46;;;;;;;5.72;5.22;;;12.70;99.90;;;;;;5040440;28;20074;-43
2023/04/01 11:34:15;;;;;;;3.80;3.50;;;12.60;99.90;;;;;;5020064;28;20108;-43
2023/04/01 11:36:56;;;;;;;2.60;2.40;;;12.60;99.90;;;;;;5038513;28;20025;-43
2023/04/01 11:39:44;;;;;;;2.13;1.92;;;12.70;99.90;;;;;;5042936;28;20033;-43
2023/04/01 11:42:18;;;;;;;1.95;1.80;;;12.60;99.90;;;;;;5041355;28;20565;-43
2023/04/01 11:44:54;;;;;;;1.60;1.50;;;12.60;99.90;;;;;;5042545;28;20036;-42
2023/04/01 11:47:56;;;;;;;1.58;1.48;;;12.50;99.90;;;;;;5041984;28;20068;-42
2023/04/01 11:51:01;;;;;;;1.50;1.40;;;12.50;99.90;;;;;;5041902;28;20033;-43
2023/04/01 11:53:58;;;;;;;1.70;1.60;;;12.50;99.90;;;;;;5029860;28;20037;-43
2023/04/01 11:56:29;;;;;;;1.65;1.42;;;12.40;99.90;;;;;;5042883;28;20082;-44
2023/04/01 11:59:31;;;;;;;1.30;1.20;;;12.30;99.90;;;;;;5042911;28;20033;-42
2023/04/01 12:02:34;;;;;;;1.20;1.10;;;12.20;99.90;;;;;;5042915;28;20127;-43
2023/04/01 12:05:18;;;;;;;;;;;12.10;99.90;;;;;;5023474;28;20029;-43
2023/04/01 12:08:13;;;;;;;1.13;1.02;;;12.10;99.90;;;;;;5043136;28;20716;-43
2023/04/01 12:10:56;;;;;;;0.95;0.90;;;12.00;99.90;;;;;;5042517;28;20628;-42
2023/04/01 12:13:34;;;;;;;0.90;0.82;;;12.00;99.90;;;;;;5043291;28;20035;-44
2023/04/01 12:15:59;;;;;;;1.13;1.02;;;11.90;99.90;;;;;;5043065;28;20147;-43
2023/04/01 12:18:34;;;;;;;1.40;1.30;;;11.80;99.90;;;;;;5041944;28;20489;-44
2023/04/01 12:21:14;;;;;;;1.50;1.40;;;11.80;99.90;;;;;;5043568;28;20114;-44
2023/04/01 12:24:14;;;;;;;1.48;1.38;;;11.70;99.90;;;;;;5043226;28;20459;-43
2023/04/01 12:26:45;;;;;;;2.70;1.30;;;11.70;99.90;;;;;;5042564;28;20216;-43
2023/04/01 12:29:41;;;;;;;2.10;1.50;;;11.60;99.90;;;;;;5042379;28;20178;-44
2023/04/01 12:32:24;;;;;;;1.65;1.55;;;11.60;99.90;;;;;;5041854;28;20017;-44
2023/04/01 12:35:06;;;;;;;1.58;1.40;;;11.60;99.90;;;;;;5043548;28;20040;-43
2023/04/01 12:37:43;;;;;;;1.00;1.00;;;11.50;99.90;;;;;;5043102;28;20017;-44
2023/04/01 12:40:18;;;;;;;1.25;1.15;;;11.50;99.90;;;;;;5041673;28;20033;-44
2023/04/01 12:43:05;;;;;;;1.55;1.33;;;11.60;99.90;;;;;;5042768;28;20025;-43
2023/04/01 12:46:03;;;;;;;1.98;1.50;;;11.70;99.90;;;;;;5043533;28;20036;-43
2023/04/01 12:48:32;;;;;;;1.40;1.30;;;11.70;99.90;;;;;;5042261;28;20049;-44
2023/04/01 12:51:11;;;;;;;1.30;1.20;;;11.70;99.90;;;;;;5043016;28;20362;-44
2023/04/01 12:53:40;;;;;;;1.45;1.35;;;11.80;99.90;;;;;;5041816;28;20036;-44
2023/04/01 12:56:32;;;;;;;1.60;1.50;;;11.90;99.90;;;;;;5041633;28;20047;-44
2023/04/01 12:59:34;;;;;;;2.60;2.40;;;11.90;99.90;;;;;;5042043;28;20522;-44
2023/04/01 13:02:28;;;;;;;2.63;2.42;;;11.80;99.90;;;;;;5032481;28;20156;-43
2023/04/01 13:05:37;;;;;;;2.50;2.10;;;11.80;99.90;;;;;;5039719;28;20029;-43
2023/04/01 13:08:11;;;;;;;2.45;2.25;;;11.80;99.90;;;;;;5040874;28;20033;-44
2023/04/01 13:11:14;;;;;;;2.88;2.22;;;11.90;99.90;;;;;;5041988;28;20038;-44
2023/04/01 13:14:20;;;;;;;2.10;1.95;;;11.80;99.90;;;;;;5042331;28;20050;-43
2023/04/01 13:17:04;;;;;;;2.85;2.33;;;11.90;99.90;;;;;;5041811;28;20044;-43
2023/04/01 13:19:45;;;;;;;2.38;2.17;;;12.00;99.90;;;;;;5041236;28;20099;-43
2023/04/01 13:22:49;;;;;;;2.58;2.00;;;12.00;99.90;;;;;;5021048;28;20028;-43
2023/04/01 13:25:46;;;;;;;2.30;2.10;;;12.10;99.90;;;;;;5040386;28;20064;-44
2023/04/01 13:28:26;;;;;;;2.10;1.90;;;12.10;99.90;;;;;;5039979;28;20031;-43
2023/04/01 13:31:13;;;;;;;2.40;2.20;;;12.10;99.90;;;;;;5041666;28;20071;-44
2023/04/01 13:33:50;;;;;;;2.50;2.30;;;12.20;99.90;;;;;;5040942;28;20035;-42
2023/04/01 13:36:46;;;;;;;2.60;2.40;;;12.20;99.90;;;;;;5029288;28;20025;-42
2023/04/01 13:39:49;;;;;;;2.45;2.25;;;12.20;99.90;;;;;;5040503;28;20337;-43
2023/04/01 13:42:33;;;;;;;2.38;2.17;;;12.20;99.90;;;;;;5039935;28;20021;-43